Terminal Aerodrome Forecast
Issued by NWS Lake Charles, LA

Home | Current Version | Previous Version | Text Only | Print | Product List | Glossary On
Versions: 1 2 3 4 5 6 7 8 9 10 11 12 13 14
000
FTUS44 KLCH 191100
TAFBPT
TAF
KBPT 191120Z 1912/2012 07011KT P6SM -RA VCTS SCT007 OVC035CB
      TEMPO 1912/1916 4SM -RA BR OVC007
     FM191600 05007KT 4SM -RA BR OVC007
     FM192200 02007KT 4SM BR VCSH OVC007
     FM200100 01010KT 4SM BR OVC004=

USA.gov is the U.S. government's official web portal to all federal, state and local government web resources and services.